createdAt,value
2023-11-15T00:01:35.833Z,61.47
2023-11-15T00:04:04.801Z,63.88
2023-11-15T00:06:33.113Z,64.73
2023-11-15T00:09:01.597Z,63.07
2023-11-15T00:11:29.956Z,61.81
2023-11-15T00:13:58.647Z,61.31
2023-11-15T00:16:27.168Z,60.25
2023-11-15T00:18:55.812Z,59.69
2023-11-15T00:21:24.137Z,58.42
2023-11-15T00:23:52.381Z,58.44
2023-11-15T00:26:21.122Z,59.41
2023-11-15T00:28:56.908Z,62.62
2023-11-15T00:31:27.437Z,65.37
2023-11-15T00:33:55.992Z,64.58
2023-11-15T00:36:24.485Z,61.99
2023-11-15T00:38:52.891Z,61.06
2023-11-15T00:41:21.427Z,60.41
2023-11-15T00:43:50.148Z,58.35
2023-11-15T00:46:18.492Z,56.28
2023-11-15T00:48:46.659Z,57.39
2023-11-15T00:51:14.897Z,59.14
2023-11-15T00:53:43.790Z,62.35
2023-11-15T00:56:12.673Z,64.71
2023-11-15T00:58:42.812Z,63.47
2023-11-15T01:01:12.496Z,61.36
2023-11-15T01:03:57.579Z,60.72
2023-11-15T01:06:26.618Z,56.02
2023-11-15T01:08:56.341Z,55.00
2023-11-15T01:11:27.670Z,56.23
2023-11-15T01:13:56.604Z,57.69
2023-11-15T01:16:25.512Z,59.80
2023-11-15T01:18:56.816Z,63.67
2023-11-15T01:21:25.126Z,65.18
2023-11-15T01:23:54.013Z,62.91
2023-11-15T01:26:22.378Z,59.53
2023-11-15T01:28:51.663Z,56.59
2023-11-15T01:31:20.032Z,57.69
2023-11-15T01:33:48.460Z,58.26
2023-11-15T01:36:17.391Z,59.75
2023-11-15T01:38:45.713Z,60.97
2023-11-15T01:41:13.975Z,65.27
2023-11-15T01:43:42.125Z,67.11
2023-11-15T01:46:10.879Z,63.87
2023-11-15T01:48:39.398Z,60.90
2023-11-15T01:51:10.405Z,60.07
2023-11-15T01:53:40.316Z,57.48
2023-11-15T01:56:09.545Z,56.05
2023-11-15T01:58:37.873Z,57.39
2023-11-15T02:01:06.820Z,59.96
2023-11-15T02:03:35.397Z,60.63
2023-11-15T02:06:04.650Z,64.21
2023-11-15T02:08:34.005Z,66.72
2023-11-15T02:11:02.511Z,64.88
2023-11-15T02:13:30.958Z,62.24
2023-11-15T02:16:02.634Z,60.73
2023-11-15T02:18:31.149Z,57.58
2023-11-15T02:20:59.739Z,56.63
2023-11-15T02:23:28.371Z,60.41
2023-11-15T02:25:56.696Z,60.91
2023-11-15T02:28:25.129Z,64.45
2023-11-15T02:30:53.562Z,66.18
2023-11-15T02:33:22.099Z,63.81
2023-11-15T02:35:50.622Z,61.68
2023-11-15T02:38:18.857Z,58.97
2023-11-15T02:40:47.513Z,57.87
2023-11-15T02:43:15.797Z,58.61
2023-11-15T02:45:47.463Z,60.56
2023-11-15T02:48:16.037Z,61.87
2023-11-15T02:50:45.154Z,65.90
2023-11-15T02:53:13.531Z,65.95
2023-11-15T02:55:42.012Z,62.90
2023-11-15T02:58:10.251Z,61.87
2023-11-15T03:00:39.356Z,61.47
2023-11-15T03:03:08.034Z,61.11
2023-11-15T03:05:36.704Z,60.92
2023-11-15T03:08:07.074Z,60.14
2023-11-15T03:10:35.553Z,60.05
2023-11-15T03:13:05.030Z,59.11
2023-11-15T03:15:33.402Z,58.40
2023-11-15T03:18:22.267Z,59.57
2023-11-15T03:20:51.078Z,61.23
2023-11-15T03:23:21.071Z,65.40
2023-11-15T03:25:56.620Z,66.94
2023-11-15T03:28:25.183Z,65.20
2023-11-15T03:30:53.467Z,63.80
2023-11-15T03:33:22.160Z,63.69
2023-11-15T03:35:51.152Z,62.79
2023-11-15T03:38:19.899Z,61.14
2023-11-15T03:40:49.126Z,61.38
2023-11-15T03:43:17.334Z,61.16
2023-11-15T03:45:45.616Z,61.07
2023-11-15T03:48:13.984Z,61.10
2023-11-15T03:50:45.419Z,60.72
2023-11-15T03:53:14.085Z,60.92
2023-11-15T03:55:45.276Z,60.72
2023-11-15T03:58:14.540Z,61.17
2023-11-15T04:00:43.668Z,61.10
2023-11-15T04:03:12.543Z,61.06
2023-11-15T04:05:41.100Z,61.20
2023-11-15T04:08:10.646Z,60.89
2023-11-15T04:10:39.077Z,60.64
2023-11-15T04:13:07.352Z,60.87
2023-11-15T04:15:35.627Z,60.87
2023-11-15T04:18:04.221Z,61.75
2023-11-15T04:20:33.235Z,61.19
2023-11-15T04:23:01.623Z,61.54
2023-11-15T04:25:29.966Z,62.26
2023-11-15T04:27:59.108Z,61.72
2023-11-15T04:30:28.249Z,62.50
2023-11-15T04:32:56.498Z,62.77
2023-11-15T04:35:25.045Z,62.34
2023-11-15T04:37:53.486Z,62.22
2023-11-15T04:40:22.376Z,61.96
2023-11-15T04:42:50.983Z,61.50
2023-11-15T04:45:19.148Z,62.43
2023-11-15T04:47:47.708Z,62.64
2023-11-15T04:50:17.364Z,61.77
2023-11-15T04:52:45.634Z,62.39
2023-11-15T04:55:13.885Z,62.74
2023-11-15T04:57:41.945Z,62.79
2023-11-15T05:00:14.151Z,63.07
2023-11-15T05:02:42.702Z,62.38
2023-11-15T05:05:12.166Z,62.29
2023-11-15T05:07:40.709Z,62.30
2023-11-15T05:10:11.184Z,63.12
2023-11-15T05:12:39.689Z,63.37
2023-11-15T05:15:08.826Z,62.98
2023-11-15T05:17:37.881Z,62.47
2023-11-15T05:20:07.585Z,62.67
2023-11-15T05:22:36.064Z,62.89
2023-11-15T05:25:07.241Z,63.48
2023-11-15T05:27:35.900Z,63.83
2023-11-15T05:30:04.892Z,63.34
2023-11-15T05:32:33.129Z,62.70
2023-11-15T05:35:01.846Z,63.66
2023-11-15T05:37:30.120Z,63.60
2023-11-15T05:39:58.498Z,63.62
2023-11-15T05:42:26.767Z,63.53
2023-11-15T05:44:55.103Z,63.95
2023-11-15T05:47:26.834Z,63.67
2023-11-15T05:49:55.501Z,64.13
2023-11-15T05:52:23.933Z,63.31
2023-11-15T05:54:59.579Z,63.69
2023-11-15T05:57:28.512Z,63.94
2023-11-15T05:59:56.704Z,63.48
2023-11-15T06:02:25.205Z,63.34
2023-11-15T06:04:54.102Z,63.74
2023-11-15T06:07:22.429Z,63.76
2023-11-15T06:09:52.036Z,63.25
2023-11-15T06:12:21.381Z,64.32
2023-11-15T06:14:49.764Z,64.83
2023-11-15T06:17:18.710Z,64.65
2023-11-15T06:19:52.097Z,64.26
2023-11-15T06:22:24.611Z,63.99
2023-11-15T06:24:53.868Z,63.74
2023-11-15T06:27:23.313Z,64.43
2023-11-15T06:29:59.393Z,63.64
2023-11-15T06:32:28.719Z,64.30
2023-11-15T06:34:57.723Z,64.14
2023-11-15T06:37:25.990Z,63.64
2023-11-15T06:39:54.385Z,63.99
2023-11-15T06:42:23.172Z,63.93
2023-11-15T06:44:51.464Z,63.66
2023-11-15T06:47:20.634Z,64.30
2023-11-15T06:49:49.023Z,64.12
2023-11-15T06:52:17.301Z,63.68
2023-11-15T06:54:47.726Z,64.08
2023-11-15T06:57:16.196Z,64.37
2023-11-15T06:59:44.795Z,64.05
2023-11-15T07:02:13.089Z,64.26
2023-11-15T07:04:48.837Z,64.07
2023-11-15T07:07:17.179Z,64.15
2023-11-15T07:09:45.467Z,64.37
2023-11-15T07:12:14.656Z,64.30
2023-11-15T07:14:46.210Z,64.40
2023-11-15T07:17:19.702Z,64.89
2023-11-15T07:19:49.302Z,64.06
2023-11-15T07:22:17.513Z,65.11
2023-11-15T07:24:45.864Z,65.66
2023-11-15T07:27:14.379Z,65.40
2023-11-15T07:29:42.732Z,65.74
2023-11-15T07:32:10.997Z,66.14
2023-11-15T07:34:42.085Z,65.48
2023-11-15T07:37:10.426Z,65.45
2023-11-15T07:39:38.684Z,65.66
2023-11-15T07:42:07.205Z,64.95
2023-11-15T07:44:36.866Z,64.67
2023-11-15T07:47:05.823Z,64.67
2023-11-15T07:49:43.354Z,64.91
2023-11-15T07:52:14.499Z,64.86
2023-11-15T07:54:42.894Z,64.39
2023-11-15T07:57:11.383Z,64.51
2023-11-15T07:59:39.583Z,64.65
2023-11-15T08:02:08.011Z,64.50
2023-11-15T08:04:36.712Z,63.90
2023-11-15T08:07:05.619Z,63.85
2023-11-15T08:09:34.103Z,64.36
2023-11-15T08:12:02.906Z,64.35
2023-11-15T08:14:33.272Z,64.48
2023-11-15T08:17:03.137Z,64.88
2023-11-15T08:19:31.576Z,64.84
2023-11-15T08:21:59.947Z,64.78
2023-11-15T08:24:29.117Z,64.54
2023-11-15T08:26:57.737Z,64.36
2023-11-15T08:29:26.413Z,64.67
2023-11-15T08:31:54.594Z,64.71
2023-11-15T08:34:24.227Z,64.69
2023-11-15T08:36:53.138Z,64.67
2023-11-15T08:39:23.433Z,64.32
2023-11-15T08:41:51.817Z,64.21
2023-11-15T08:44:20.264Z,64.10
2023-11-15T08:46:49.595Z,63.87
2023-11-15T08:49:18.337Z,63.66
2023-11-15T08:51:48.755Z,63.68
2023-11-15T08:54:17.725Z,63.56
2023-11-15T08:56:47.060Z,63.15
2023-11-15T08:59:16.819Z,63.22
2023-11-15T09:01:46.728Z,63.69
2023-11-15T09:04:17.870Z,63.80
2023-11-15T09:06:49.347Z,63.87
2023-11-15T09:09:18.816Z,63.93
2023-11-15T09:11:48.974Z,64.17
2023-11-15T09:14:17.658Z,64.14
2023-11-15T09:16:49.131Z,63.97
2023-11-15T09:19:22.579Z,63.91
2023-11-15T09:21:52.377Z,63.96
2023-11-15T09:24:23.690Z,64.76
2023-11-15T09:26:52.910Z,65.06
2023-11-15T09:29:21.440Z,65.19
2023-11-15T09:31:51.436Z,65.30
2023-11-15T09:34:27.958Z,65.33
2023-11-15T09:36:56.950Z,65.10
2023-11-15T09:39:25.230Z,65.34
2023-11-15T09:41:57.754Z,65.29
2023-11-15T09:44:27.508Z,65.07
2023-11-15T09:47:00.222Z,64.73
2023-11-15T09:49:28.698Z,64.68
2023-11-15T09:51:58.377Z,64.77
2023-11-15T09:54:27.684Z,64.87
2023-11-15T09:56:58.379Z,64.29
2023-11-15T09:59:28.135Z,63.88
2023-11-15T10:01:58.670Z,64.35
2023-11-15T10:04:29.389Z,63.97
2023-11-15T10:07:05.390Z,64.07
2023-11-15T10:09:44.242Z,64.49
2023-11-15T10:12:12.524Z,64.61
2023-11-15T10:14:56.124Z,64.70
2023-11-15T10:17:40.798Z,64.36
2023-11-15T10:20:23.499Z,64.39
2023-11-15T10:22:54.129Z,64.30
2023-11-15T10:25:33.208Z,64.13
2023-11-15T10:28:08.574Z,63.97
2023-11-15T10:30:36.829Z,63.79
2023-11-15T10:33:15.597Z,63.51
2023-11-15T10:35:44.897Z,63.65
2023-11-15T10:38:19.844Z,63.66
2023-11-15T10:41:09.755Z,63.60
2023-11-15T10:43:37.893Z,63.87
2023-11-15T10:46:07.173Z,63.85
2023-11-15T10:48:35.496Z,63.89
2023-11-15T10:51:08.508Z,64.06
2023-11-15T10:53:39.969Z,64.09
2023-11-15T10:56:10.927Z,64.17
2023-11-15T10:58:41.308Z,64.33
2023-11-15T11:01:13.960Z,64.60
2023-11-15T11:03:42.794Z,64.41
2023-11-15T11:06:55.123Z,64.24
2023-11-15T11:09:41.337Z,64.04
2023-11-15T11:12:12.551Z,63.49
2023-11-15T11:14:41.653Z,63.25
2023-11-15T11:17:39.125Z,63.34
2023-11-15T11:20:28.357Z,63.47
2023-11-15T11:23:12.271Z,63.69
2023-11-15T11:25:43.811Z,63.36
2023-11-15T11:28:13.722Z,63.33
2023-11-15T11:30:46.106Z,63.09
2023-11-15T11:33:17.319Z,62.87
2023-11-15T11:35:57.155Z,62.83
2023-11-15T11:38:44.806Z,62.93
2023-11-15T11:41:14.344Z,63.14
2023-11-15T11:44:06.123Z,63.31
2023-11-15T11:46:34.664Z,63.22
2023-11-15T11:49:03.500Z,62.99
2023-11-15T11:51:31.623Z,63.14
2023-11-15T11:54:00.933Z,63.30
2023-11-15T11:56:29.815Z,63.56
2023-11-15T11:59:09.204Z,63.90
2023-11-15T12:01:48.657Z,64.40
2023-11-15T12:04:17.137Z,63.96
2023-11-15T12:06:46.252Z,63.64
2023-11-15T12:09:23.870Z,63.54
2023-11-15T12:11:52.152Z,63.35
2023-11-15T12:14:21.005Z,62.99
2023-11-15T12:16:49.825Z,62.94
2023-11-15T12:19:26.018Z,62.78
2023-11-15T12:21:55.885Z,62.63
2023-11-15T12:24:26.285Z,62.46
2023-11-15T12:26:59.544Z,62.42
2023-11-15T12:29:29.193Z,62.37
2023-11-15T12:31:57.983Z,62.43
2023-11-15T12:34:26.368Z,62.44
2023-11-15T12:36:57.403Z,62.52
2023-11-15T12:39:39.245Z,62.43
2023-11-15T12:42:28.896Z,62.25
2023-11-15T12:44:57.112Z,62.15
2023-11-15T12:47:25.505Z,62.14
2023-11-15T12:49:53.811Z,62.55
2023-11-15T12:52:42.632Z,62.75
2023-11-15T12:55:18.184Z,62.99
2023-11-15T12:57:55.534Z,63.37
2023-11-15T13:00:30.201Z,63.44
2023-11-15T13:02:59.066Z,62.95
2023-11-15T13:05:30.400Z,63.25
2023-11-15T13:07:58.822Z,63.56
2023-11-15T13:10:27.605Z,63.51
2023-11-15T13:12:58.519Z,63.75
2023-11-15T13:15:27.879Z,63.42
2023-11-15T13:17:56.604Z,63.43
2023-11-15T13:20:25.114Z,63.39
2023-11-15T13:22:53.189Z,63.41
2023-11-15T13:25:21.395Z,63.78
2023-11-15T13:27:49.735Z,64.14
2023-11-15T13:30:18.124Z,64.00
2023-11-15T13:32:46.661Z,64.14
2023-11-15T13:35:15.500Z,64.38
2023-11-15T13:37:44.173Z,64.60
2023-11-15T13:40:14.515Z,64.61
2023-11-15T13:42:45.819Z,64.74
2023-11-15T13:45:15.745Z,65.13
2023-11-15T13:47:49.804Z,64.74
2023-11-15T13:50:18.279Z,64.94
2023-11-15T13:52:46.549Z,65.49
2023-11-15T13:55:26.886Z,65.07
2023-11-15T13:57:55.458Z,65.24
2023-11-15T14:00:34.699Z,65.27
2023-11-15T14:03:07.973Z,65.27
2023-11-15T14:05:38.218Z,65.22
2023-11-15T14:08:12.528Z,65.94
2023-11-15T14:10:41.549Z,65.83
2023-11-15T14:13:12.694Z,65.63
2023-11-15T14:15:42.737Z,65.57
2023-11-15T14:18:12.230Z,65.39
2023-11-15T14:20:40.675Z,65.25
2023-11-15T14:23:09.135Z,64.99
2023-11-15T14:25:38.232Z,65.05
2023-11-15T14:28:06.715Z,64.98
2023-11-15T14:30:35.065Z,64.83
2023-11-15T14:33:06.941Z,64.94
2023-11-15T14:35:56.494Z,65.64
2023-11-15T14:38:24.793Z,65.90
2023-11-15T14:40:53.956Z,65.66
2023-11-15T14:43:22.293Z,65.56
2023-11-15T14:45:51.679Z,65.57
2023-11-15T14:48:20.202Z,65.52
2023-11-15T14:50:48.903Z,65.55
2023-11-15T14:53:31.461Z,65.51
2023-11-15T14:56:01.119Z,65.47
2023-11-15T14:58:32.751Z,65.53
2023-11-15T15:01:01.226Z,65.68
2023-11-15T15:03:29.663Z,65.67
2023-11-15T15:06:02.092Z,65.45
2023-11-15T15:08:31.074Z,65.06
2023-11-15T15:11:00.075Z,64.88
2023-11-15T15:13:28.501Z,65.04
2023-11-15T15:15:56.728Z,65.11
2023-11-15T15:18:34.221Z,65.44
2023-11-15T15:21:05.230Z,66.00
2023-11-15T15:23:34.308Z,65.69
2023-11-15T15:26:03.968Z,65.46
2023-11-15T15:28:35.101Z,65.28
2023-11-15T15:31:04.612Z,65.33
2023-11-15T15:33:36.172Z,65.64
2023-11-15T15:36:06.085Z,65.67
2023-11-15T15:38:34.600Z,65.75
2023-11-15T15:41:05.441Z,66.08
2023-11-15T15:43:34.124Z,65.96
2023-11-15T15:46:02.837Z,66.22
2023-11-15T15:48:31.938Z,66.15
2023-11-15T15:51:00.313Z,66.43
2023-11-15T15:53:28.801Z,66.56
2023-11-15T15:55:58.341Z,66.23
2023-11-15T15:58:26.749Z,66.31
2023-11-15T16:00:55.028Z,66.13
2023-11-15T16:03:24.211Z,66.05
2023-11-15T16:05:52.608Z,66.03
2023-11-15T16:08:21.189Z,66.09
2023-11-15T16:10:52.148Z,65.81
2023-11-15T16:13:20.427Z,65.65
2023-11-15T16:15:49.010Z,65.52
2023-11-15T16:18:18.537Z,65.46
2023-11-15T16:20:47.895Z,65.45
2023-11-15T16:23:16.209Z,65.26
2023-11-15T16:25:44.637Z,65.16
2023-11-15T16:28:14.357Z,65.26
2023-11-15T16:30:42.767Z,65.58
2023-11-15T16:33:11.277Z,65.71
2023-11-15T16:35:40.844Z,65.53
2023-11-15T16:38:09.291Z,65.46
2023-11-15T16:40:40.641Z,65.56
2023-11-15T16:43:12.806Z,65.46
2023-11-15T16:45:41.882Z,65.43
2023-11-15T16:48:11.190Z,65.76
2023-11-15T16:50:41.824Z,66.31
2023-11-15T16:53:11.780Z,66.47
2023-11-15T16:55:41.960Z,66.58
2023-11-15T16:58:12.391Z,67.03
2023-11-15T17:00:43.831Z,66.98
2023-11-15T17:03:12.734Z,66.78
2023-11-15T17:05:41.208Z,66.86
2023-11-15T17:08:09.912Z,66.91
2023-11-15T17:10:38.387Z,66.62
2023-11-15T17:13:07.839Z,66.47
2023-11-15T17:15:37.127Z,66.24
2023-11-15T17:18:06.703Z,65.90
2023-11-15T17:20:40.699Z,65.97
2023-11-15T17:23:09.688Z,65.91
2023-11-15T17:25:38.206Z,65.92
2023-11-15T17:28:07.065Z,65.77
2023-11-15T17:30:36.148Z,65.44
2023-11-15T17:33:04.561Z,65.87
2023-11-15T17:35:33.114Z,66.05
2023-11-15T17:38:01.590Z,65.97
2023-11-15T17:40:32.399Z,66.24
2023-11-15T17:43:01.436Z,66.51
2023-11-15T17:45:29.839Z,66.27
2023-11-15T17:47:58.946Z,66.66
2023-11-15T17:50:29.144Z,67.30
2023-11-15T17:52:59.480Z,66.98
2023-11-15T17:55:28.009Z,67.20
2023-11-15T17:57:57.714Z,67.11
2023-11-15T18:00:26.262Z,67.17
2023-11-15T18:02:54.645Z,67.15
2023-11-15T18:05:23.593Z,67.30
2023-11-15T18:07:52.360Z,67.26
2023-11-15T18:10:27.341Z,67.28
2023-11-15T18:12:56.483Z,67.54
2023-11-15T18:15:25.495Z,67.47
2023-11-15T18:17:55.118Z,67.64
2023-11-15T18:20:23.679Z,67.75
2023-11-15T18:22:52.388Z,67.57
2023-11-15T18:25:20.642Z,67.63
2023-11-15T18:27:49.038Z,67.87
2023-11-15T18:30:20.239Z,67.99
2023-11-15T18:32:49.492Z,68.14
2023-11-15T18:35:18.337Z,67.89
2023-11-15T18:37:46.818Z,67.93
2023-11-15T18:40:18.754Z,68.52
2023-11-15T18:42:47.127Z,67.96
2023-11-15T18:45:15.778Z,67.94
2023-11-15T18:47:45.514Z,68.81
2023-11-15T18:50:16.063Z,68.89
2023-11-15T18:52:50.273Z,68.76
2023-11-15T18:55:19.720Z,68.88
2023-11-15T18:57:48.795Z,68.60
2023-11-15T19:00:23.386Z,69.18
2023-11-15T19:02:52.139Z,69.34
2023-11-15T19:05:43.530Z,69.36
2023-11-15T19:08:13.070Z,69.07
2023-11-15T19:10:41.808Z,68.56
2023-11-15T19:13:10.905Z,68.14
2023-11-15T19:15:39.416Z,67.85
2023-11-15T19:18:28.564Z,67.58
2023-11-15T19:20:59.311Z,67.23
2023-11-15T19:23:27.872Z,67.15
2023-11-15T19:25:56.854Z,66.77
2023-11-15T19:28:26.292Z,66.41
2023-11-15T19:30:55.199Z,66.27
2023-11-15T19:33:23.661Z,66.24
2023-11-15T19:35:52.265Z,66.04
2023-11-15T19:38:21.202Z,65.87
2023-11-15T19:40:49.675Z,65.70
2023-11-15T19:43:18.266Z,65.70
2023-11-15T19:45:48.805Z,65.34
2023-11-15T19:48:17.542Z,65.13
2023-11-15T19:50:46.268Z,64.71
2023-11-15T19:53:14.951Z,64.29
2023-11-15T19:55:43.531Z,64.07
2023-11-15T19:58:12.831Z,64.03
2023-11-15T20:00:42.494Z,63.90
2023-11-15T20:03:11.877Z,63.61
2023-11-15T20:05:41.402Z,63.57
2023-11-15T20:08:10.408Z,63.59
2023-11-15T20:10:39.226Z,63.33
2023-11-15T20:13:08.629Z,63.25
2023-11-15T20:15:38.433Z,62.98
2023-11-15T20:18:07.240Z,62.73
2023-11-15T20:20:35.846Z,62.37
2023-11-15T20:23:04.493Z,62.46
2023-11-15T20:25:34.816Z,62.71
2023-11-15T20:28:04.324Z,62.83
2023-11-15T20:30:32.748Z,63.04
2023-11-15T20:33:01.052Z,62.80
2023-11-15T20:35:29.903Z,62.90
2023-11-15T20:38:01.451Z,63.01
2023-11-15T20:40:30.707Z,62.92
2023-11-15T20:42:58.993Z,62.54
2023-11-15T20:45:27.930Z,62.49
2023-11-15T20:47:56.703Z,62.70
2023-11-15T20:50:26.189Z,62.63
2023-11-15T20:52:54.550Z,62.49
2023-11-15T20:55:25.345Z,62.43
2023-11-15T20:58:00.337Z,62.54
2023-11-15T21:00:31.046Z,61.84
2023-11-15T21:02:59.714Z,61.64
2023-11-15T21:05:28.979Z,61.72
2023-11-15T21:07:57.527Z,61.66
2023-11-15T21:10:26.516Z,61.68
2023-11-15T21:12:55.612Z,61.74
2023-11-15T21:15:24.026Z,61.81
2023-11-15T21:17:52.446Z,61.50
2023-11-15T21:20:20.737Z,61.35
2023-11-15T21:22:49.327Z,61.40
2023-11-15T21:25:17.692Z,61.25
2023-11-15T21:27:46.293Z,61.06
2023-11-15T21:30:14.792Z,60.89
2023-11-15T21:32:43.873Z,60.69
2023-11-15T21:35:12.795Z,60.83
2023-11-15T21:37:42.616Z,60.91
2023-11-15T21:40:15.362Z,61.22
2023-11-15T21:42:45.873Z,61.38
2023-11-15T21:45:15.440Z,61.39
2023-11-15T21:47:47.858Z,61.90
2023-11-15T21:50:16.571Z,62.44
2023-11-15T21:52:44.990Z,62.46
2023-11-15T21:55:13.747Z,62.87
2023-11-15T21:57:42.571Z,62.97
2023-11-15T22:00:16.609Z,62.69
2023-11-15T22:02:44.894Z,62.46
2023-11-15T22:05:13.187Z,62.49
2023-11-15T22:07:41.518Z,62.24
2023-11-15T22:10:10.951Z,62.13
2023-11-15T22:12:40.508Z,62.05
2023-11-15T22:15:10.584Z,61.80
2023-11-15T22:17:40.718Z,61.40
2023-11-15T22:20:11.992Z,61.72
2023-11-15T22:22:43.361Z,61.84
2023-11-15T22:25:11.727Z,61.59
2023-11-15T22:27:40.111Z,61.61
2023-11-15T22:30:10.532Z,61.59
2023-11-15T22:32:39.794Z,62.16
2023-11-15T22:35:13.050Z,62.60
2023-11-15T22:37:41.414Z,62.71
2023-11-15T22:40:11.131Z,62.30
2023-11-15T22:42:40.315Z,62.45
2023-11-15T22:45:10.325Z,63.13
2023-11-15T22:47:38.634Z,62.68
2023-11-15T22:50:08.075Z,62.96
2023-11-15T22:52:36.416Z,63.27
2023-11-15T22:55:06.813Z,63.08
2023-11-15T22:57:35.261Z,62.91
2023-11-15T23:00:05.908Z,62.60
2023-11-15T23:02:34.992Z,62.32
2023-11-15T23:05:04.447Z,62.16
2023-11-15T23:07:44.160Z,61.88
2023-11-15T23:10:12.636Z,62.06
2023-11-15T23:12:42.405Z,62.02
2023-11-15T23:15:12.631Z,61.83
2023-11-15T23:17:41.936Z,61.61
2023-11-15T23:20:11.686Z,61.70
2023-11-15T23:22:41.073Z,61.72
2023-11-15T23:25:09.597Z,61.56
2023-11-15T23:27:41.056Z,61.37
2023-11-15T23:30:10.335Z,61.25
2023-11-15T23:32:38.546Z,61.64
2023-11-15T23:35:09.229Z,61.53
2023-11-15T23:37:37.494Z,61.61
2023-11-15T23:40:12.983Z,61.53
2023-11-15T23:42:41.415Z,61.56
2023-11-15T23:45:10.324Z,61.32
2023-11-15T23:47:38.730Z,60.88
2023-11-15T23:50:08.893Z,60.88
2023-11-15T23:52:37.591Z,60.73
2023-11-15T23:55:07.131Z,60.71
2023-11-15T23:57:35.497Z,60.52
